createdAt,value
2019-04-10T00:01:53.106Z,9.80
2019-04-10T00:04:21.651Z,9.70
2019-04-10T00:06:50.116Z,9.70
2019-04-10T00:09:19.046Z,9.70
2019-04-10T00:11:47.537Z,9.70
2019-04-10T00:14:16.428Z,9.60
2019-04-10T00:16:44.923Z,9.60
2019-04-10T00:19:13.456Z,9.70
2019-04-10T00:21:41.916Z,9.70
2019-04-10T00:24:11.446Z,9.70
2019-04-10T00:26:40.106Z,9.70
2019-04-10T00:29:08.569Z,9.60
2019-04-10T00:31:38.061Z,9.60
2019-04-10T00:34:07.394Z,9.50
2019-04-10T00:36:35.966Z,9.50
2019-04-10T00:39:06.450Z,9.40
2019-04-10T00:41:35.087Z,9.30
2019-04-10T00:44:03.660Z,9.30
2019-04-10T00:46:32.525Z,9.30
2019-04-10T00:49:01.126Z,9.30
2019-04-10T00:51:29.588Z,9.30
2019-04-10T00:53:58.053Z,9.30
2019-04-10T00:56:26.516Z,9.30
2019-04-10T00:58:55.423Z,9.30
2019-04-10T01:01:24.013Z,9.30
2019-04-10T01:03:52.478Z,9.10
2019-04-10T01:06:21.963Z,9.00
2019-04-10T01:08:51.060Z,9.00
2019-04-10T01:11:19.572Z,9.00
2019-04-10T01:13:48.106Z,8.90
2019-04-10T01:16:17.630Z,9.00
2019-04-10T01:18:46.418Z,8.90
2019-04-10T01:21:14.859Z,8.90
2019-04-10T01:23:43.327Z,8.90
2019-04-10T01:26:12.731Z,8.90
2019-04-10T01:28:41.291Z,8.80
2019-04-10T01:31:10.634Z,8.70
2019-04-10T01:33:39.383Z,8.70
2019-04-10T01:36:08.868Z,8.70
2019-04-10T01:38:37.788Z,8.70
2019-04-10T01:41:06.367Z,8.70
2019-04-10T01:43:35.220Z,8.70
2019-04-10T01:46:04.193Z,8.60
2019-04-10T01:48:32.939Z,8.60
2019-04-10T01:51:01.440Z,8.60
2019-04-10T01:53:30.083Z,8.60
2019-04-10T01:55:59.585Z,8.60
2019-04-10T01:58:29.345Z,8.60
2019-04-10T02:01:05.186Z,8.50
2019-04-10T02:03:34.097Z,8.50
2019-04-10T02:06:03.146Z,8.50
2019-04-10T02:08:32.014Z,8.50
2019-04-10T02:11:00.703Z,8.40
2019-04-10T02:13:29.697Z,8.30
2019-04-10T02:15:58.595Z,8.30
2019-04-10T02:18:27.687Z,8.30
2019-04-10T02:20:56.270Z,8.30
2019-04-10T02:23:24.730Z,8.30
2019-04-10T02:25:53.279Z,8.30
2019-04-10T02:28:22.682Z,8.30
2019-04-10T02:30:51.227Z,8.40
2019-04-10T02:33:19.744Z,8.40
2019-04-10T02:35:48.396Z,8.40
2019-04-10T02:38:35.796Z,8.50
2019-04-10T02:40:47.630Z,8.50
2019-04-10T02:43:16.347Z,8.50
2019-04-10T02:45:45.035Z,8.50
2019-04-10T02:48:14.917Z,8.50
2019-04-10T02:50:44.795Z,8.50
2019-04-10T02:53:15.149Z,8.50
2019-04-10T02:55:43.932Z,8.50
2019-04-10T02:58:14.067Z,8.50
2019-04-10T03:00:43.998Z,8.40
2019-04-10T03:03:13.893Z,8.50
2019-04-10T03:05:42.694Z,8.50
2019-04-10T03:08:13.014Z,8.50
2019-04-10T03:10:48.638Z,8.50
2019-04-10T03:13:13.597Z,8.60
2019-04-10T03:15:43.403Z,8.60
2019-04-10T03:18:12.727Z,8.70
2019-04-10T03:20:42.623Z,8.70
2019-04-10T03:23:11.579Z,8.60
2019-04-10T03:25:41.296Z,8.70
2019-04-10T03:28:14.589Z,8.70
2019-04-10T03:30:44.329Z,8.70
2019-04-10T03:33:21.908Z,8.70
2019-04-10T03:35:49.642Z,8.70
2019-04-10T03:38:18.337Z,8.80
2019-04-10T03:40:47.925Z,8.80
2019-04-10T03:43:17.454Z,8.80
2019-04-10T03:45:46.704Z,8.80
2019-04-10T03:48:15.926Z,8.80
2019-04-10T03:50:44.759Z,8.80
2019-04-10T03:53:14.035Z,8.90
2019-04-10T03:55:43.252Z,8.80
2019-04-10T03:58:11.855Z,8.90
2019-04-10T04:00:40.492Z,8.90
2019-04-10T04:03:08.983Z,8.80
2019-04-10T04:05:37.455Z,8.80
2019-04-10T04:08:05.973Z,8.80
2019-04-10T04:10:35.081Z,8.80
2019-04-10T04:13:05.761Z,8.80
2019-04-10T04:15:34.000Z,8.70
2019-04-10T04:18:02.559Z,8.60
2019-04-10T04:20:31.853Z,8.60
2019-04-10T04:23:01.386Z,8.60
2019-04-10T04:25:30.415Z,8.60
2019-04-10T04:27:58.958Z,8.60
2019-04-10T04:30:27.465Z,8.60
2019-04-10T04:32:56.110Z,8.60
2019-04-10T04:35:25.604Z,8.60
2019-04-10T04:37:54.966Z,8.60
2019-04-10T04:40:58.353Z,8.70
2019-04-10T04:43:26.932Z,8.70
2019-04-10T04:45:55.514Z,8.70
2019-04-10T04:48:24.320Z,8.80
2019-04-10T04:50:52.939Z,8.80
2019-04-10T04:53:21.383Z,8.80
2019-04-10T04:55:49.837Z,8.80
2019-04-10T04:58:18.299Z,8.80
2019-04-10T05:00:46.774Z,8.80
2019-04-10T05:03:16.295Z,8.80
2019-04-10T05:05:44.947Z,8.80
2019-04-10T05:08:13.394Z,8.80
2019-04-10T05:10:42.103Z,8.80
2019-04-10T05:13:10.554Z,8.80
2019-04-10T05:15:39.007Z,8.90
2019-04-10T05:18:07.550Z,8.80
2019-04-10T05:20:43.984Z,8.90
2019-04-10T05:23:06.295Z,9.00
2019-04-10T05:25:35.903Z,8.90
2019-04-10T05:28:05.862Z,9.00
2019-04-10T05:30:35.581Z,9.10
2019-04-10T05:33:04.359Z,9.20
2019-04-10T05:35:32.808Z,9.20
2019-04-10T05:38:01.267Z,9.20
2019-04-10T05:40:30.143Z,9.30
2019-04-10T05:42:59.602Z,9.30
2019-04-10T05:45:28.093Z,9.40
2019-04-10T05:47:56.966Z,9.40
2019-04-10T05:50:25.733Z,9.50
2019-04-10T05:52:54.287Z,9.50
2019-04-10T05:55:22.752Z,9.50
2019-04-10T05:57:51.270Z,9.50
2019-04-10T06:00:20.862Z,9.50
2019-04-10T06:02:50.275Z,9.50
2019-04-10T06:05:18.823Z,9.50
2019-04-10T06:07:47.557Z,9.50
2019-04-10T06:10:17.473Z,9.50
2019-04-10T06:12:46.704Z,9.50
2019-04-10T06:15:15.497Z,9.50
2019-04-10T06:17:44.812Z,9.50
2019-04-10T06:20:14.151Z,9.50
2019-04-10T06:22:44.421Z,9.50
2019-04-10T06:25:16.195Z,9.40
2019-04-10T06:27:45.015Z,9.40
2019-04-10T06:30:13.758Z,9.30
2019-04-10T06:32:43.252Z,9.30
2019-04-10T06:35:13.484Z,9.40
2019-04-10T06:37:42.278Z,9.40
2019-04-10T06:40:18.634Z,9.40
2019-04-10T06:42:48.484Z,9.40
2019-04-10T06:45:11.641Z,9.40
2019-04-10T06:47:40.086Z,9.40
2019-04-10T06:50:08.700Z,9.40
2019-04-10T06:52:37.155Z,9.40
2019-04-10T06:55:06.839Z,9.40
2019-04-10T06:57:46.817Z,9.50
2019-04-10T07:00:12.770Z,9.50
2019-04-10T07:02:39.362Z,9.50
2019-04-10T07:05:10.543Z,9.50
2019-04-10T07:07:49.633Z,9.40
2019-04-10T07:10:21.463Z,9.40
2019-04-10T07:12:39.729Z,9.40
2019-04-10T07:15:08.879Z,9.40
2019-04-10T07:17:40.668Z,9.30
2019-04-10T07:20:09.532Z,9.30
2019-04-10T07:22:44.629Z,9.20
2019-04-10T07:25:10.300Z,9.30
2019-04-10T07:27:40.190Z,9.30
2019-04-10T07:30:09.906Z,9.20
2019-04-10T07:32:42.081Z,9.20
2019-04-10T07:35:09.015Z,9.20
2019-04-10T07:37:37.662Z,9.30
2019-04-10T07:40:10.036Z,9.30
2019-04-10T07:42:41.330Z,9.30
2019-04-10T07:45:09.392Z,9.40
2019-04-10T07:47:38.121Z,9.40
2019-04-10T07:50:08.788Z,9.40
2019-04-10T07:52:37.497Z,9.40
2019-04-10T07:55:06.636Z,9.50
2019-04-10T07:57:36.286Z,9.50
2019-04-10T08:00:08.884Z,9.60
2019-04-10T08:02:38.510Z,9.70
2019-04-10T08:05:08.564Z,9.70
2019-04-10T08:07:38.786Z,9.80
2019-04-10T08:10:09.950Z,9.90
2019-04-10T08:12:46.000Z,9.90
2019-04-10T08:15:09.419Z,9.90
2019-04-10T08:17:39.029Z,10.10
2019-04-10T08:20:08.222Z,10.10
2019-04-10T08:22:37.170Z,10.10
2019-04-10T08:25:08.879Z,10.20
2019-04-10T08:27:38.396Z,10.20
2019-04-10T08:30:10.779Z,10.30
2019-04-10T08:32:51.535Z,10.30
2019-04-10T08:35:09.192Z,10.40
2019-04-10T08:37:38.931Z,10.50
2019-04-10T08:40:09.599Z,10.60
2019-04-10T08:42:40.178Z,10.70
2019-04-10T08:45:09.190Z,10.70
2019-04-10T08:47:37.926Z,10.70
2019-04-10T08:50:07.795Z,10.80
2019-04-10T08:52:37.093Z,10.70
2019-04-10T08:55:07.965Z,10.80
2019-04-10T08:57:36.527Z,10.80
2019-04-10T09:00:08.530Z,10.70
2019-04-10T09:02:38.137Z,10.70
2019-04-10T09:05:09.067Z,10.70
2019-04-10T09:07:38.187Z,10.60
2019-04-10T09:10:08.152Z,10.70
2019-04-10T09:12:36.854Z,10.60
2019-04-10T09:15:07.671Z,10.70
2019-04-10T09:17:37.520Z,10.60
2019-04-10T09:20:07.292Z,10.60
2019-04-10T09:22:57.206Z,10.50
2019-04-10T09:25:07.195Z,10.50
2019-04-10T09:27:35.938Z,10.40
2019-04-10T09:30:08.710Z,10.40
2019-04-10T09:32:37.389Z,10.30
2019-04-10T09:35:08.650Z,10.20
2019-04-10T09:37:37.975Z,10.30
2019-04-10T09:40:08.860Z,10.30
2019-04-10T09:42:37.580Z,10.30
2019-04-10T09:45:07.281Z,10.30
2019-04-10T09:47:35.835Z,10.30
2019-04-10T09:50:06.132Z,10.40
2019-04-10T09:52:35.686Z,10.40
2019-04-10T09:55:07.336Z,10.50
2019-04-10T09:57:36.705Z,10.50
2019-04-10T10:00:10.564Z,10.40
2019-04-10T10:02:39.958Z,10.40
2019-04-10T10:05:08.763Z,10.40
2019-04-10T10:07:37.239Z,10.50
2019-04-10T10:10:10.604Z,10.50
2019-04-10T10:12:39.376Z,10.60
2019-04-10T10:15:09.517Z,10.60
2019-04-10T10:17:39.191Z,10.60
2019-04-10T10:20:08.711Z,10.60
2019-04-10T10:22:37.235Z,10.70
2019-04-10T10:25:09.027Z,10.70
2019-04-10T10:27:38.572Z,10.70
2019-04-10T10:30:09.795Z,10.70
2019-04-10T10:32:39.277Z,10.80
2019-04-10T10:35:09.378Z,11.00
2019-04-10T10:37:38.879Z,11.00
2019-04-10T10:40:10.003Z,11.00
2019-04-10T10:42:40.979Z,10.90
2019-04-10T10:45:10.490Z,10.90
2019-04-10T10:47:40.162Z,10.80
2019-04-10T10:50:10.125Z,10.80
2019-04-10T10:52:39.647Z,10.80
2019-04-10T10:55:09.711Z,10.80
2019-04-10T10:57:39.451Z,10.90
2019-04-10T11:00:13.014Z,10.90
2019-04-10T11:02:41.524Z,11.10
2019-04-10T11:05:10.787Z,11.00
2019-04-10T11:07:40.402Z,11.10
2019-04-10T11:10:09.656Z,11.10
2019-04-10T11:12:38.427Z,11.20
2019-04-10T11:15:07.883Z,11.30
2019-04-10T11:17:38.511Z,11.20
2019-04-10T11:20:10.064Z,11.30
2019-04-10T11:22:39.809Z,11.40
2019-04-10T11:25:08.868Z,11.50
2019-04-10T11:27:37.326Z,11.50
2019-04-10T11:30:08.295Z,11.60
2019-04-10T11:32:38.163Z,11.60
2019-04-10T11:35:07.948Z,11.60
2019-04-10T11:37:43.411Z,11.50
2019-04-10T11:40:08.765Z,11.50
2019-04-10T11:42:39.737Z,11.40
2019-04-10T11:45:10.405Z,11.30
2019-04-10T11:47:39.588Z,11.40
2019-04-10T11:52:44.766Z,11.40
2019-04-10T11:55:13.905Z,11.40
2019-04-10T11:57:41.757Z,11.50
2019-04-10T12:00:16.977Z,11.50
2019-04-10T12:02:43.950Z,11.50
2019-04-10T12:05:18.144Z,11.50
2019-04-10T12:08:09.543Z,11.50
2019-04-10T12:12:43.804Z,11.60
2019-04-10T12:15:12.620Z,11.70
2019-04-10T12:17:42.984Z,11.80
2019-04-10T12:20:11.591Z,11.70
2019-04-10T12:22:40.713Z,11.60
2019-04-10T12:25:10.238Z,11.60
2019-04-10T12:27:39.066Z,11.60
2019-04-10T12:30:13.166Z,11.40
2019-04-10T12:32:41.757Z,11.40
2019-04-10T12:35:11.528Z,11.30
2019-04-10T12:37:41.172Z,11.40
2019-04-10T12:40:10.055Z,11.40
2019-04-10T12:42:38.751Z,11.50
2019-04-10T12:45:08.281Z,11.50
2019-04-10T12:47:37.687Z,11.60
2019-04-10T12:50:10.039Z,11.50
2019-04-10T12:52:38.817Z,11.60
2019-04-10T12:55:08.270Z,11.60
2019-04-10T12:57:37.053Z,11.80
2019-04-10T13:00:09.898Z,11.80
2019-04-10T13:02:38.617Z,12.00
2019-04-10T13:05:07.497Z,12.20
2019-04-10T13:07:36.106Z,12.30
2019-04-10T13:10:08.592Z,12.40
2019-04-10T13:12:37.653Z,12.50
2019-04-10T13:15:10.927Z,12.50
2019-04-10T13:17:40.674Z,12.50
2019-04-10T13:20:11.500Z,12.40
2019-04-10T13:22:40.180Z,12.40
2019-04-10T13:25:10.169Z,12.40
2019-04-10T13:27:39.082Z,12.30
2019-04-10T13:30:12.581Z,12.30
2019-04-10T13:32:40.419Z,12.20
2019-04-10T13:35:10.330Z,12.30
2019-04-10T13:37:39.180Z,12.40
2019-04-10T13:40:08.525Z,12.30
2019-04-10T13:42:37.292Z,12.40
2019-04-10T13:45:07.969Z,12.40
2019-04-10T13:47:36.620Z,12.50
2019-04-10T13:50:08.690Z,12.60
2019-04-10T13:52:38.912Z,12.70
2019-04-10T13:55:10.084Z,12.80
2019-04-10T13:57:39.216Z,12.80
2019-04-10T14:00:11.299Z,12.80
2019-04-10T14:02:39.863Z,12.90
2019-04-10T14:05:11.516Z,12.80
2019-04-10T14:07:40.228Z,12.90
2019-04-10T14:10:10.507Z,12.80
2019-04-10T14:12:39.116Z,12.70
2019-04-10T14:15:07.831Z,12.70
2019-04-10T14:17:37.494Z,12.70
2019-04-10T14:20:07.026Z,12.70
2019-04-10T14:22:37.958Z,12.70
2019-04-10T14:25:09.604Z,12.80
2019-04-10T14:27:38.643Z,13.00
2019-04-10T14:30:11.319Z,13.00
2019-04-10T14:32:40.098Z,13.00
2019-04-10T14:35:10.002Z,13.10
2019-04-10T14:37:38.675Z,13.10
2019-04-10T14:40:09.571Z,13.20
2019-04-10T14:42:38.398Z,13.10
2019-04-10T14:45:08.897Z,13.20
2019-04-10T14:47:37.569Z,13.40
2019-04-10T14:50:07.414Z,13.40
2019-04-10T14:52:37.142Z,13.60
2019-04-10T14:55:06.217Z,13.40
2019-04-10T14:57:34.934Z,13.30
2019-04-10T15:00:08.543Z,13.30
2019-04-10T15:02:37.122Z,13.30
2019-04-10T15:05:07.919Z,13.30
2019-04-10T15:07:37.304Z,13.40
2019-04-10T15:10:07.092Z,13.30
2019-04-10T15:12:35.555Z,13.20
2019-04-10T15:15:05.124Z,13.20
2019-04-10T15:17:33.949Z,13.10
2019-04-10T15:20:02.836Z,13.00
2019-04-10T15:22:31.763Z,13.00
2019-04-10T15:25:01.407Z,13.00
2019-04-10T15:27:30.221Z,12.80
2019-04-10T15:29:58.739Z,12.80
2019-04-10T15:32:27.382Z,12.80
2019-04-10T15:34:55.952Z,12.70
2019-04-10T15:37:24.958Z,12.70
2019-04-10T15:39:53.943Z,12.70
2019-04-10T15:42:23.787Z,12.70
2019-04-10T15:44:52.465Z,12.70
2019-04-10T15:47:23.384Z,12.80
2019-04-10T15:49:55.682Z,12.70
2019-04-10T15:52:24.270Z,12.60
2019-04-10T15:54:53.815Z,12.50
2019-04-10T15:57:22.739Z,12.50
2019-04-10T15:59:52.445Z,12.40
2019-04-10T16:02:21.672Z,12.40
2019-04-10T16:04:51.061Z,12.30
2019-04-10T16:07:20.355Z,12.30
2019-04-10T16:09:51.993Z,12.30
2019-04-10T16:12:21.291Z,12.20
2019-04-10T16:14:50.665Z,12.10
2019-04-10T16:17:23.984Z,12.10
2019-04-10T16:19:59.830Z,12.00
2019-04-10T16:22:31.225Z,11.90
2019-04-10T16:25:01.405Z,11.90
2019-04-10T16:27:30.685Z,11.80
2019-04-10T16:30:02.074Z,11.70
2019-04-10T16:32:29.634Z,11.60
2019-04-10T16:34:58.895Z,11.50
2019-04-10T16:37:27.620Z,11.50
2019-04-10T16:40:00.457Z,11.40
2019-04-10T16:42:26.518Z,11.50
2019-04-10T16:44:55.422Z,11.40
2019-04-10T16:47:23.941Z,11.30
2019-04-10T16:49:53.122Z,11.30
2019-04-10T16:52:23.022Z,11.30
2019-04-10T16:54:51.697Z,11.30
2019-04-10T16:57:20.681Z,11.20
2019-04-10T16:59:49.385Z,11.10
2019-04-10T17:02:17.996Z,11.10
2019-04-10T17:04:46.547Z,11.00
2019-04-10T17:07:15.006Z,11.00
2019-04-10T17:09:43.860Z,11.00
2019-04-10T17:12:13.699Z,11.00
2019-04-10T17:14:42.178Z,10.90
2019-04-10T17:17:10.879Z,10.90
2019-04-10T17:19:48.746Z,10.90
2019-04-10T17:22:10.904Z,10.90
2019-04-10T17:24:39.748Z,10.80
2019-04-10T17:27:08.316Z,10.80
2019-04-10T17:29:36.908Z,10.80
2019-04-10T17:32:06.745Z,10.80
2019-04-10T17:34:35.563Z,10.80
2019-04-10T17:37:05.347Z,10.70
2019-04-10T17:39:35.487Z,10.80
2019-04-10T17:42:04.295Z,10.70
2019-04-10T17:44:33.840Z,10.70
2019-04-10T17:47:03.949Z,10.70
2019-04-10T17:49:33.790Z,10.70
2019-04-10T17:52:03.772Z,10.60
2019-04-10T17:54:32.455Z,10.60
2019-04-10T17:57:00.991Z,10.50
2019-04-10T17:59:30.217Z,10.50
2019-04-10T18:02:01.168Z,10.50
2019-04-10T18:04:29.845Z,10.40
2019-04-10T18:06:59.552Z,10.50
2019-04-10T18:09:28.509Z,10.40
2019-04-10T18:11:59.430Z,10.30
2019-04-10T18:14:27.306Z,10.40
2019-04-10T18:16:55.755Z,10.40
2019-04-10T18:19:25.287Z,10.40
2019-04-10T18:21:54.238Z,10.40
2019-04-10T18:24:22.871Z,10.40
2019-04-10T18:26:53.660Z,10.40
2019-04-10T18:29:21.651Z,10.40
2019-04-10T18:31:50.976Z,10.40
2019-04-10T18:34:21.447Z,10.40
2019-04-10T18:36:51.090Z,10.30
2019-04-10T18:39:19.990Z,10.40
2019-04-10T18:41:48.604Z,10.30
2019-04-10T18:44:17.144Z,10.30
2019-04-10T18:46:46.674Z,10.20
2019-04-10T18:49:15.610Z,10.20
2019-04-10T18:51:44.195Z,10.20
2019-04-10T18:54:12.659Z,10.20
2019-04-10T18:56:41.117Z,10.10
2019-04-10T18:59:14.357Z,10.10
2019-04-10T19:01:51.482Z,10.10
2019-04-10T19:04:22.454Z,10.10
2019-04-10T19:07:01.911Z,10.20
2019-04-10T19:09:32.540Z,10.20
2019-04-10T19:12:02.335Z,10.20
2019-04-10T19:14:34.821Z,10.20
2019-04-10T19:17:02.470Z,10.20
2019-04-10T19:19:32.384Z,10.20
2019-04-10T19:22:02.139Z,10.20
2019-04-10T19:24:32.351Z,10.10
2019-04-10T19:27:01.995Z,10.00
2019-04-10T19:29:31.578Z,10.00
2019-04-10T19:32:02.219Z,10.00
2019-04-10T19:34:31.723Z,10.00
2019-04-10T19:37:00.548Z,10.00
2019-04-10T19:39:30.003Z,9.90
2019-04-10T19:41:58.600Z,10.00
2019-04-10T19:44:27.235Z,10.00
2019-04-10T19:46:55.814Z,10.00
2019-04-10T19:49:24.279Z,10.00
2019-04-10T19:51:52.911Z,10.10
2019-04-10T19:54:22.044Z,10.00
2019-04-10T19:56:50.969Z,10.10
2019-04-10T19:59:20.756Z,10.10
2019-04-10T20:01:50.596Z,10.10
2019-04-10T20:04:19.263Z,10.10
2019-04-10T20:06:48.790Z,10.10
2019-04-10T20:09:17.923Z,10.00
2019-04-10T20:11:52.409Z,10.00
2019-04-10T20:14:16.879Z,9.90
2019-04-10T20:16:45.400Z,9.80
2019-04-10T20:19:14.966Z,9.80
2019-04-10T20:21:43.993Z,9.80
2019-04-10T20:24:12.559Z,9.80
2019-04-10T20:26:41.234Z,9.80
2019-04-10T20:29:10.735Z,9.70
2019-04-10T20:31:39.576Z,9.80
2019-04-10T20:34:09.402Z,9.70
2019-04-10T20:36:38.894Z,9.80
2019-04-10T20:39:09.440Z,9.80
2019-04-10T20:41:47.624Z,9.80
2019-04-10T20:44:09.301Z,9.80
2019-04-10T20:46:38.260Z,9.80
2019-04-10T20:49:08.388Z,9.80
2019-04-10T20:51:37.740Z,9.90
2019-04-10T20:54:06.607Z,9.80
2019-04-10T20:56:35.089Z,9.80
2019-04-10T20:59:03.678Z,9.80
2019-04-10T21:01:33.066Z,9.70
2019-04-10T21:04:01.579Z,9.70
2019-04-10T21:06:30.022Z,9.70
2019-04-10T21:08:58.788Z,9.70
2019-04-10T21:11:27.297Z,9.70
2019-04-10T21:13:56.571Z,9.70
2019-04-10T21:16:25.295Z,9.70
2019-04-10T21:18:53.933Z,9.60
2019-04-10T21:21:22.455Z,9.60
2019-04-10T21:23:52.041Z,9.60
2019-04-10T21:26:21.897Z,9.60
2019-04-10T21:28:51.526Z,9.60
2019-04-10T21:31:27.583Z,9.60
2019-04-10T21:34:16.012Z,9.60
2019-04-10T21:36:45.564Z,9.60
2019-04-10T21:39:14.175Z,9.60
2019-04-10T21:41:42.622Z,9.60
2019-04-10T21:44:11.517Z,9.50
2019-04-10T21:46:41.399Z,9.50
2019-04-10T21:49:09.867Z,9.50
2019-04-10T21:51:38.374Z,9.40
2019-04-10T21:54:06.829Z,9.40
2019-04-10T21:56:35.269Z,9.40
2019-04-10T21:59:03.799Z,9.40
2019-04-10T22:01:32.506Z,9.40
2019-04-10T22:04:02.615Z,9.40
2019-04-10T22:06:39.722Z,9.40
2019-04-10T22:09:28.459Z,9.40
2019-04-10T22:11:58.825Z,9.40
2019-04-10T22:14:28.234Z,9.40
2019-04-10T22:16:58.117Z,9.40
2019-04-10T22:19:26.825Z,9.50
2019-04-10T22:21:55.809Z,9.40
2019-04-10T22:24:25.505Z,9.50
2019-04-10T22:26:54.403Z,9.50
2019-04-10T22:29:23.187Z,9.40
2019-04-10T22:31:51.694Z,9.50
2019-04-10T22:34:21.287Z,9.50
2019-04-10T22:36:49.994Z,9.40
2019-04-10T22:39:18.880Z,9.40
2019-04-10T22:41:48.342Z,9.40
2019-04-10T22:44:17.559Z,9.40
2019-04-10T22:46:46.820Z,9.40
2019-04-10T22:49:15.470Z,9.40
2019-04-10T22:51:44.015Z,9.40
2019-04-10T22:54:13.080Z,9.40
2019-04-10T22:56:42.243Z,9.40
2019-04-10T22:59:10.963Z,9.30
2019-04-10T23:01:39.771Z,9.30
2019-04-10T23:04:08.483Z,9.20
2019-04-10T23:06:37.510Z,9.20
2019-04-10T23:09:09.731Z,9.20
2019-04-10T23:11:42.280Z,9.20
2019-04-10T23:14:08.430Z,9.20
2019-04-10T23:16:37.886Z,9.20
2019-04-10T23:19:06.690Z,9.20
2019-04-10T23:21:35.206Z,9.20
2019-04-10T23:24:03.723Z,9.20
2019-04-10T23:26:33.253Z,9.20
2019-04-10T23:29:02.101Z,9.20
2019-04-10T23:31:30.627Z,9.10
2019-04-10T23:33:59.139Z,9.10
2019-04-10T23:36:27.666Z,9.20
2019-04-10T23:38:56.111Z,9.10
2019-04-10T23:41:25.450Z,9.10
2019-04-10T23:43:54.012Z,9.10
2019-04-10T23:46:22.539Z,9.10
2019-04-10T23:48:50.995Z,9.10
2019-04-10T23:51:19.452Z,9.20
2019-04-10T23:53:48.936Z,9.20
2019-04-10T23:56:17.805Z,9.20
2019-04-10T23:58:46.577Z,9.20
